Time;durP1;ratioP1;P1;durP2;ratioP2;P2;SDS_P1;SDS_P2;PMS_P1;PMS_P2;Temp;Humidity;BMP_temperature;BMP_pressure;BME280_temperature;BME280_humidity;BME280_pressure;Samples;Min_cycle;Max_cycle;Signal;HPM_P1;HPM_P2
2021/07/11 00:01:04;;;;;;;5.28;4.55;;;24.40;83.10;;;;;;5050176;28;20028;-83
2021/07/11 00:03:30;;;;;;;9.68;5.15;;;24.40;83.10;;;;;;5050493;28;20032;-81
2021/07/11 00:05:56;;;;;;;12.10;4.82;;;24.50;83.20;;;;;;5068796;28;20052;-82
2021/07/11 00:08:21;;;;;;;13.48;5.53;;;24.40;83.90;;;;;;5051096;28;20131;-80
2021/07/11 00:10:47;;;;;;;8.23;5.35;;;24.40;83.40;;;;;;5050169;28;20029;-81
2021/07/11 00:13:13;;;;;;;6.93;4.95;;;24.40;83.10;;;;;;5068667;28;20071;-81
2021/07/11 00:15:39;;;;;;;9.02;4.63;;;24.40;83.60;;;;;;5050272;28;20027;-82
2021/07/11 00:18:04;;;;;;;8.23;4.65;;;24.40;83.10;;;;;;5050086;28;20044;-82
2021/07/11 00:20:30;;;;;;;7.00;4.63;;;24.40;82.50;;;;;;5068193;28;20051;-82
2021/07/11 00:22:56;;;;;;;7.47;4.40;;;24.40;82.90;;;;;;5049801;28;20127;-81
2021/07/11 00:25:22;;;;;;;8.23;4.50;;;24.40;82.70;;;;;;5050402;28;20113;-82
2021/07/11 00:27:48;;;;;;;10.00;4.32;;;24.30;82.70;;;;;;5050172;28;20028;-83
2021/07/11 00:30:15;;;;;;;5.47;4.25;;;24.30;82.80;;;;;;5050112;28;20055;-82
2021/07/11 00:32:41;;;;;;;10.65;4.90;;;24.30;82.50;;;;;;5050154;28;20020;-80
2021/07/11 00:35:08;;;;;;;8.45;4.43;;;24.30;82.50;;;;;;5050257;28;20405;-82
2021/07/11 00:37:33;;;;;;;10.38;4.38;;;24.30;82.40;;;;;;5049488;28;20048;-83
2021/07/11 00:40:00;;;;;;;6.20;4.82;;;24.30;82.30;;;;;;5050195;28;20062;-83
2021/07/11 00:42:26;;;;;;;8.73;4.55;;;24.30;82.20;;;;;;5050266;28;20051;-82
2021/07/11 00:44:51;;;;;;;13.48;4.68;;;24.30;82.00;;;;;;5067993;28;20477;-81
2021/07/11 00:47:17;;;;;;;7.45;4.50;;;24.40;81.80;;;;;;5050005;28;20039;-81
2021/07/11 00:49:44;;;;;;;10.75;4.72;;;24.40;81.80;;;;;;5049440;28;20060;-82
2021/07/11 00:52:11;;;;;;;8.70;4.90;;;24.40;81.40;;;;;;5049719;28;20480;-83
2021/07/11 00:54:37;;;;;;;6.18;4.57;;;24.40;81.90;;;;;;5049823;28;20020;-81
2021/07/11 00:57:04;;;;;;;15.75;4.45;;;24.40;81.20;;;;;;5049884;28;20131;-82
2021/07/11 00:59:30;;;;;;;14.68;5.07;;;24.40;81.00;;;;;;5050062;28;20033;-81
2021/07/11 01:02:20;;;;;;;8.05;4.47;;;24.40;80.90;;;;;;5049103;28;20021;-81
2021/07/11 01:04:58;;;;;;;8.63;4.85;;;24.30;81.40;;;;;;5067724;28;20025;-83
2021/07/11 01:07:33;;;;;;;6.88;4.68;;;24.30;81.50;;;;;;5049343;28;20055;-80
2021/07/11 01:10:06;;;;;;;5.65;4.35;;;24.30;81.50;;;;;;5067466;28;20489;-82
2021/07/11 01:12:35;;;;;;;15.05;5.03;;;24.20;81.70;;;;;;5067264;28;20094;-82
2021/07/11 01:15:02;;;;;;;9.10;5.20;;;24.20;81.70;;;;;;5049399;28;20059;-82
2021/07/11 01:17:29;;;;;;;10.38;5.18;;;24.10;82.00;;;;;;5048823;28;20572;-82
2021/07/11 01:20:04;;;;;;;9.35;4.60;;;24.10;82.10;;;;;;5067099;28;20020;-82
2021/07/11 01:22:39;;;;;;;11.52;4.82;;;24.10;82.30;;;;;;5067653;28;20043;-82
2021/07/11 01:25:08;;;;;;;6.75;4.95;;;24.00;82.30;;;;;;5049492;28;20035;-82
2021/07/11 01:27:35;;;;;;;6.13;4.93;;;24.00;82.40;;;;;;5048738;28;20460;-81
2021/07/11 01:30:02;;;;;;;6.15;4.53;;;24.00;82.40;;;;;;5049031;28;20028;-81
2021/07/11 01:32:29;;;;;;;12.23;5.20;;;24.00;82.40;;;;;;5048256;28;20485;-80
2021/07/11 01:35:00;;;;;;;8.80;4.72;;;24.00;82.40;;;;;;5048482;28;20063;-82
2021/07/11 01:37:27;;;;;;;8.07;5.07;;;24.00;82.30;;;;;;5048750;28;20208;-82
2021/07/11 01:39:55;;;;;;;10.48;4.85;;;24.00;82.40;;;;;;5049259;28;20062;-81
2021/07/11 01:42:20;;;;;;;6.00;4.82;;;24.00;82.40;;;;;;5048997;28;20025;-83
2021/07/11 01:44:47;;;;;;;10.52;5.30;;;24.00;82.30;;;;;;5049045;28;20035;-82
2021/07/11 01:47:13;;;;;;;5.85;4.57;;;24.10;82.00;;;;;;5048234;28;20078;-81
2021/07/11 01:49:40;;;;;;;7.63;4.40;;;24.00;82.10;;;;;;5048980;28;20029;-81
2021/07/11 01:52:07;;;;;;;6.38;5.05;;;24.00;82.10;;;;;;5048876;28;20039;-81
2021/07/11 01:54:32;;;;;;;9.07;4.72;;;24.00;82.10;;;;;;5049187;28;20623;-81
2021/07/11 01:56:59;;;;;;;8.07;4.97;;;24.10;82.00;;;;;;5048697;28;20036;-82
2021/07/11 01:59:24;;;;;;;8.13;5.03;;;24.10;81.90;;;;;;5066830;28;20162;-82
2021/07/11 02:01:51;;;;;;;11.90;4.85;;;24.10;82.00;;;;;;5048879;28;20115;-81
2021/07/11 02:04:16;;;;;;;8.77;5.40;;;24.00;81.90;;;;;;5048932;28;20629;-82
2021/07/11 02:06:42;;;;;;;7.93;4.85;;;24.00;82.00;;;;;;5048597;28;20063;-82
2021/07/11 02:09:08;;;;;;;5.30;4.53;;;24.00;82.20;;;;;;5066548;28;20028;-82
2021/07/11 02:11:37;;;;;;;8.85;5.20;;;23.90;82.30;;;;;;5048847;28;20198;-82
2021/07/11 02:14:08;;;;;;;9.43;4.90;;;23.90;82.40;;;;;;5049103;28;20040;-82
2021/07/11 02:16:37;;;;;;;8.25;5.38;;;23.90;82.70;;;;;;5048259;28;20048;-81
2021/07/11 02:19:03;;;;;;;12.52;4.63;;;23.80;82.80;;;;;;5048510;28;20024;-80
2021/07/11 02:21:30;;;;;;;7.88;4.85;;;23.80;82.70;;;;;;5048643;28;20048;-81
2021/07/11 02:23:58;;;;;;;7.60;5.00;;;23.80;82.70;;;;;;5049127;28;20039;-82
2021/07/11 02:26:24;;;;;;;8.82;5.30;;;23.80;83.00;;;;;;5048713;28;20123;-82
2021/07/11 02:28:53;;;;;;;7.28;5.03;;;23.80;83.00;;;;;;5048662;28;20064;-82
2021/07/11 02:31:20;;;;;;;10.02;5.10;;;23.70;83.00;;;;;;5066244;28;20020;-82
2021/07/11 02:33:46;;;;;;;10.70;5.38;;;23.70;83.10;;;;;;5066655;28;20051;-81
2021/07/11 02:36:17;;;;;;;6.28;4.63;;;23.70;83.10;;;;;;5048087;28;20040;-80
2021/07/11 02:38:51;;;;;;;8.85;4.63;;;23.70;83.10;;;;;;5048081;28;20040;-81
2021/07/11 02:41:18;;;;;;;8.00;5.43;;;23.70;83.00;;;;;;5048589;28;20032;-82
2021/07/11 02:43:46;;;;;;;7.47;4.47;;;23.70;83.00;;;;;;5048507;28;20039;-81
2021/07/11 02:46:18;;;;;;;6.32;4.90;;;23.70;83.00;;;;;;5051733;28;20049;-82
2021/07/11 02:48:45;;;;;;;8.25;4.85;;;23.70;83.00;;;;;;5052269;28;20115;-82
2021/07/11 02:51:16;;;;;;;7.60;5.20;;;23.70;82.90;;;;;;5052365;28;20329;-82
2021/07/11 02:53:44;;;;;;;7.63;4.93;;;23.70;82.90;;;;;;5070003;28;20032;-81
2021/07/11 02:56:13;;;;;;;8.10;4.35;;;23.70;82.70;;;;;;5051849;28;20038;-82
2021/07/11 02:58:40;;;;;;;8.15;4.88;;;23.70;82.80;;;;;;5069819;28;20462;-82
2021/07/11 03:01:06;;;;;;;7.63;4.60;;;23.70;82.80;;;;;;5051815;28;20064;-81
2021/07/11 03:03:34;;;;;;;9.32;5.20;;;23.80;82.90;;;;;;5052151;28;20090;-82
2021/07/11 03:06:00;;;;;;;7.35;5.45;;;23.70;82.90;;;;;;5051600;28;20035;-82
2021/07/11 03:08:27;;;;;;;10.48;4.75;;;23.80;82.80;;;;;;5069894;28;20028;-82
2021/07/11 03:10:55;;;;;;;5.70;4.78;;;23.70;82.70;;;;;;5069422;28;20575;-80
2021/07/11 03:13:21;;;;;;;7.22;5.45;;;23.70;82.70;;;;;;5052202;28;20025;-82
2021/07/11 03:15:47;;;;;;;10.63;5.07;;;23.70;82.80;;;;;;5051660;28;20052;-82
2021/07/11 03:18:14;;;;;;;5.90;5.00;;;23.70;82.80;;;;;;5051852;28;20519;-82
2021/07/11 03:20:41;;;;;;;6.60;4.90;;;23.70;82.80;;;;;;5051494;28;20119;-83
2021/07/11 03:23:07;;;;;;;6.80;5.00;;;23.70;82.80;;;;;;5051557;28;20302;-83
2021/07/11 03:25:33;;;;;;;7.90;5.18;;;23.70;82.90;;;;;;5051308;28;20029;-82
2021/07/11 03:28:04;;;;;;;7.28;4.38;;;23.70;83.10;;;;;;5069136;28;20032;-82
2021/07/11 03:30:36;;;;;;;5.53;4.55;;;23.60;83.10;;;;;;5051240;28;20103;-82
2021/07/11 03:33:05;;;;;;;6.07;4.45;;;23.60;83.00;;;;;;5051153;28;20028;-81
2021/07/11 03:35:56;;;;;;;8.60;4.50;;;23.70;83.10;;;;;;5051157;28;20035;-82
2021/07/11 03:38:43;;;;;;;9.30;4.82;;;23.70;83.00;;;;;;5050826;28;20105;-82
2021/07/11 03:41:14;;;;;;;5.55;4.55;;;23.70;82.90;;;;;;5050426;28;20036;-82
2021/07/11 03:43:41;;;;;;;5.95;4.97;;;23.70;82.70;;;;;;5069181;28;20497;-81
2021/07/11 03:46:09;;;;;;;12.25;4.68;;;23.80;83.00;;;;;;5067499;28;20025;-82
2021/07/11 03:48:46;;;;;;;7.20;4.45;;;23.80;83.20;;;;;;5050547;28;20502;-82
2021/07/11 03:51:13;;;;;;;7.47;4.97;;;23.90;82.40;;;;;;5050546;28;20032;-81
2021/07/11 03:53:41;;;;;;;8.10;4.55;;;23.90;82.20;;;;;;5051189;28;20028;-82
2021/07/11 03:56:07;;;;;;;8.73;4.90;;;24.00;81.90;;;;;;5049706;28;20033;-82
2021/07/11 03:58:37;;;;;;;9.50;5.07;;;24.00;81.60;;;;;;5068999;28;20066;-83
2021/07/11 04:01:03;;;;;;;8.30;5.30;;;24.10;81.30;;;;;;5050694;28;20020;-82
2021/07/11 04:03:33;;;;;;;10.48;5.57;;;24.20;80.80;;;;;;5050487;28;20036;-80
2021/07/11 04:06:01;;;;;;;7.18;4.90;;;24.30;80.50;;;;;;5050882;28;20048;-82
2021/07/11 04:08:29;;;;;;;14.05;5.45;;;24.40;79.90;;;;;;5050646;28;20028;-80
2021/07/11 04:10:58;;;;;;;6.45;5.20;;;24.60;79.30;;;;;;5068295;28;20539;-81
2021/07/11 04:13:24;;;;;;;6.05;4.60;;;24.80;78.60;;;;;;5050573;28;20024;-82
2021/07/11 04:16:04;;;;;;;7.85;5.13;;;25.00;77.70;;;;;;5068107;28;20035;-81
2021/07/11 04:18:35;;;;;;;5.85;4.38;;;25.20;76.50;;;;;;5068111;28;20037;-82
2021/07/11 04:21:02;;;;;;;5.93;4.65;;;25.20;76.20;;;;;;5050490;28;20074;-80
2021/07/11 04:23:32;;;;;;;6.28;4.00;;;25.10;76.50;;;;;;5049990;28;20489;-80
2021/07/11 04:25:58;;;;;;;7.07;4.38;;;25.00;76.80;;;;;;5050406;28;20033;-81
2021/07/11 04:28:24;;;;;;;7.70;4.63;;;25.00;76.80;;;;;;5068148;28;20024;-81
2021/07/11 04:30:52;;;;;;;8.43;4.35;;;25.20;77.10;;;;;;5048953;28;20053;-82
2021/07/11 04:33:18;;;;;;;6.88;4.53;;;25.20;76.00;;;;;;5068107;28;20025;-82
2021/07/11 04:35:43;;;;;;;7.65;4.50;;;25.20;76.00;;;;;;5067724;28;20044;-82
2021/07/11 04:38:09;;;;;;;4.97;4.00;;;25.30;75.80;;;;;;5049766;28;20136;-82
2021/07/11 04:40:36;;;;;;;10.07;4.72;;;25.40;75.60;;;;;;5067879;28;20497;-82
2021/07/11 04:43:02;;;;;;;12.85;4.70;;;25.60;75.20;;;;;;5050027;28;20455;-82
2021/07/11 04:45:28;;;;;;;6.13;4.63;;;25.70;74.70;;;;;;5067302;28;20026;-82
2021/07/11 04:47:53;;;;;;;8.90;4.40;;;26.00;74.00;;;;;;5050360;28;20032;-81
2021/07/11 04:50:19;;;;;;;10.15;4.65;;;26.20;72.60;;;;;;5067899;28;20053;-82
2021/07/11 04:52:45;;;;;;;9.85;4.30;;;26.30;72.00;;;;;;5067582;28;20546;-82
2021/07/11 04:55:12;;;;;;;8.73;4.78;;;26.40;71.60;;;;;;5049934;28;20123;-81
2021/07/11 04:57:39;;;;;;;5.95;3.40;;;26.50;71.30;;;;;;5049389;28;20036;-81
2021/07/11 05:00:09;;;;;;;6.65;4.07;;;26.60;71.30;;;;;;5049529;28;20090;-83
2021/07/11 05:02:35;;;;;;;11.38;4.47;;;26.50;70.60;;;;;;5067834;28;20412;-81
2021/07/11 05:05:02;;;;;;;7.88;4.18;;;26.60;70.40;;;;;;5049786;28;20082;-82
2021/07/11 05:07:29;;;;;;;7.13;4.47;;;26.70;70.60;;;;;;5049728;28;20481;-81
2021/07/11 05:09:54;;;;;;;6.18;4.30;;;27.10;69.40;;;;;;5049703;28;20032;-82
2021/07/11 05:12:20;;;;;;;7.45;4.43;;;27.30;68.80;;;;;;5067466;28;20033;-82
2021/07/11 05:14:46;;;;;;;11.70;4.70;;;27.70;67.80;;;;;;5066757;28;20100;-81
2021/07/11 05:17:11;;;;;;;7.28;5.15;;;27.90;66.70;;;;;;5067560;28;20068;-82
2021/07/11 05:19:37;;;;;;;12.00;4.53;;;28.20;65.90;;;;;;5049486;28;20738;-82
2021/07/11 05:22:04;;;;;;;7.85;4.80;;;28.40;64.40;;;;;;5049538;28;20384;-82
2021/07/11 05:24:30;;;;;;;10.77;5.45;;;28.40;64.40;;;;;;5049578;28;20028;-82
2021/07/11 05:26:55;;;;;;;10.38;5.45;;;28.40;63.90;;;;;;5067014;28;20040;-83
2021/07/11 05:29:21;;;;;;;9.57;4.72;;;28.40;64.00;;;;;;5049159;28;20025;-80
2021/07/11 05:31:47;;;;;;;7.07;4.60;;;28.50;64.40;;;;;;5050187;28;20064;-80
2021/07/11 05:34:12;;;;;;;11.25;4.95;;;28.40;63.20;;;;;;5049492;28;20044;-81
2021/07/11 05:36:38;;;;;;;6.45;4.22;;;28.30;63.20;;;;;;5066314;28;20078;-79
2021/07/11 05:39:04;;;;;;;8.20;4.90;;;28.20;63.80;;;;;;5065992;28;20505;-79
2021/07/11 05:41:30;;;;;;;8.73;4.72;;;28.10;64.10;;;;;;5066341;28;20356;-79
2021/07/11 05:43:56;;;;;;;8.55;4.50;;;28.10;64.40;;;;;;5047794;28;20122;-80
2021/07/11 05:46:22;;;;;;;9.07;4.43;;;28.30;64.00;;;;;;5048205;28;20021;-79
2021/07/11 05:48:48;;;;;;;9.23;4.43;;;28.40;63.50;;;;;;5066223;28;20503;-80
2021/07/11 05:51:13;;;;;;;6.68;4.47;;;28.40;63.20;;;;;;5066347;28;20020;-79
2021/07/11 05:53:39;;;;;;;7.93;5.28;;;28.50;63.50;;;;;;5066113;28;20032;-80
2021/07/11 05:56:05;;;;;;;14.60;5.10;;;28.50;63.80;;;;;;5047730;28;20059;-79
2021/07/11 05:58:30;;;;;;;9.07;4.78;;;28.60;63.20;;;;;;5047940;28;20040;-78
2021/07/11 06:00:56;;;;;;;7.75;4.25;;;28.70;63.30;;;;;;5047864;28;20033;-80
2021/07/11 06:03:22;;;;;;;7.47;4.68;;;29.00;62.70;;;;;;5065929;28;20043;-80
2021/07/11 06:05:47;;;;;;;9.40;5.13;;;29.20;61.90;;;;;;5066616;28;20021;-80
2021/07/11 06:08:13;;;;;;;7.80;4.38;;;29.60;61.10;;;;;;5065789;28;20032;-80
2021/07/11 06:10:39;;;;;;;6.85;3.88;;;29.70;60.30;;;;;;5048517;28;20499;-79
2021/07/11 06:13:05;;;;;;;7.35;4.68;;;30.10;59.50;;;;;;5047737;28;20039;-80
2021/07/11 06:15:32;;;;;;;8.88;4.25;;;30.00;59.00;;;;;;5048003;28;20111;-81
2021/07/11 06:17:58;;;;;;;5.95;4.30;;;30.20;59.30;;;;;;5065471;28;20063;-80
2021/07/11 06:20:24;;;;;;;10.32;4.90;;;30.60;57.60;;;;;;5068626;28;20487;-79
2021/07/11 06:22:50;;;;;;;22.88;5.13;;;30.80;56.70;;;;;;5052237;28;20028;-79
2021/07/11 06:25:16;;;;;;;10.40;4.05;;;31.40;55.00;;;;;;5051828;28;20028;-80
2021/07/11 06:27:42;;;;;;;6.53;4.38;;;31.90;54.10;;;;;;5069726;28;20040;-80
2021/07/11 06:30:11;;;;;;;11.30;4.95;;;32.50;52.10;;;;;;5051443;28;20016;-79
2021/07/11 06:32:41;;;;;;;10.85;4.63;;;32.90;49.80;;;;;;5051604;28;20067;-80
2021/07/11 06:35:09;;;;;;;9.10;4.72;;;33.20;49.60;;;;;;5051656;28;20032;-80
2021/07/11 06:37:35;;;;;;;13.55;4.35;;;33.40;48.60;;;;;;5069229;28;20048;-80
2021/07/11 06:40:01;;;;;;;10.95;4.80;;;33.30;48.60;;;;;;5069625;28;20362;-79
2021/07/11 06:42:26;;;;;;;10.77;4.53;;;33.40;48.60;;;;;;5069325;28;20050;-80
2021/07/11 06:44:52;;;;;;;8.10;3.92;;;34.00;47.00;;;;;;5050938;28;20386;-79
2021/07/11 06:47:18;;;;;;;11.63;4.90;;;33.80;47.30;;;;;;5069736;28;20772;-80
2021/07/11 06:49:44;;;;;;;6.63;4.70;;;33.80;47.10;;;;;;5051070;28;20025;-80
2021/07/11 06:52:09;;;;;;;9.40;4.88;;;33.40;47.50;;;;;;5069103;28;20534;-79
2021/07/11 06:54:35;;;;;;;9.18;4.85;;;33.10;48.30;;;;;;5050973;28;20523;-80
2021/07/11 06:57:01;;;;;;;6.90;4.28;;;32.80;48.90;;;;;;5051324;28;20032;-79
2021/07/11 06:59:26;;;;;;;10.77;5.53;;;32.20;49.90;;;;;;5050879;28;20077;-80
2021/07/11 07:01:52;;;;;;;10.73;5.45;;;32.00;51.00;;;;;;5068963;28;20032;-79
2021/07/11 07:04:17;;;;;;;8.48;4.20;;;32.00;51.80;;;;;;5069001;28;20716;-80
2021/07/11 07:06:43;;;;;;;5.25;3.85;;;32.10;52.10;;;;;;5051111;28;20102;-79
2021/07/11 07:09:09;;;;;;;12.88;4.60;;;32.60;50.40;;;;;;5050812;28;20085;-80
2021/07/11 07:11:34;;;;;;;8.15;4.15;;;32.70;50.70;;;;;;5068719;28;20037;-79
2021/07/11 07:14:00;;;;;;;9.35;4.53;;;33.00;50.00;;;;;;5067868;28;20035;-80
2021/07/11 07:16:26;;;;;;;7.60;4.38;;;33.10;49.60;;;;;;5051042;28;20066;-79
2021/07/11 07:18:51;;;;;;;10.38;4.57;;;33.30;48.80;;;;;;5050763;28;20509;-80
2021/07/11 07:21:17;;;;;;;6.32;4.45;;;33.40;48.20;;;;;;5068890;28;20054;-80
2021/07/11 07:23:44;;;;;;;7.80;4.95;;;33.00;48.90;;;;;;5068791;28;20120;-80
2021/07/11 07:26:10;;;;;;;9.07;4.55;;;33.10;48.70;;;;;;5068390;28;20073;-80
2021/07/11 07:28:37;;;;;;;6.18;4.22;;;32.80;49.40;;;;;;5068295;28;20409;-80
2021/07/11 07:31:03;;;;;;;9.30;4.88;;;32.60;50.00;;;;;;5067100;28;20028;-80
2021/07/11 07:33:29;;;;;;;11.52;4.72;;;32.50;50.20;;;;;;5050469;28;20801;-80
2021/07/11 07:35:55;;;;;;;8.52;4.32;;;32.20;51.10;;;;;;5050282;28;20044;-80
2021/07/11 07:38:22;;;;;;;13.82;4.88;;;32.00;51.90;;;;;;5068414;28;20045;-81
2021/07/11 07:40:48;;;;;;;13.95;4.47;;;31.90;52.00;;;;;;5050122;28;20068;-80
2021/07/11 07:43:14;;;;;;;6.82;4.38;;;31.90;52.50;;;;;;5067981;28;20029;-81
2021/07/11 07:45:42;;;;;;;9.07;5.35;;;31.90;52.10;;;;;;5050142;28;20025;-80
2021/07/11 07:48:08;;;;;;;9.25;4.22;;;31.70;52.30;;;;;;5050163;28;20039;-80
2021/07/11 07:50:34;;;;;;;9.75;4.55;;;31.70;52.50;;;;;;5068262;28;20042;-80
2021/07/11 07:53:00;;;;;;;7.60;4.72;;;31.90;52.10;;;;;;5050238;28;20389;-80
2021/07/11 07:55:28;;;;;;;12.40;4.65;;;31.80;52.80;;;;;;5067894;28;20028;-79
2021/07/11 07:57:53;;;;;;;11.18;4.20;;;32.10;51.90;;;;;;5067349;28;20729;-81
2021/07/11 08:00:19;;;;;;;5.40;3.70;;;32.40;51.90;;;;;;5050010;28;20103;-79
2021/07/11 08:02:45;;;;;;;7.95;4.15;;;32.70;51.00;;;;;;5050031;28;20408;-80
2021/07/11 08:05:11;;;;;;;15.50;4.32;;;33.00;50.30;;;;;;5049946;28;20020;-80
2021/07/11 08:07:37;;;;;;;6.72;4.00;;;33.20;50.20;;;;;;5050008;28;20024;-80
2021/07/11 08:10:05;;;;;;;9.52;4.32;;;33.20;49.50;;;;;;5049999;28;20119;-78
2021/07/11 08:12:31;;;;;;;11.20;4.90;;;33.40;49.80;;;;;;5049419;28;20418;-81
2021/07/11 08:14:56;;;;;;;9.38;4.05;;;33.80;49.00;;;;;;5049895;28;20028;-79
2021/07/11 08:17:22;;;;;;;6.18;3.75;;;34.00;48.40;;;;;;5067274;28;20036;-79
2021/07/11 08:19:48;;;;;;;7.78;4.70;;;34.10;48.00;;;;;;5067747;28;20035;-79
2021/07/11 08:22:13;;;;;;;7.35;4.25;;;34.20;48.10;;;;;;5067618;28;20025;-79
2021/07/11 08:24:39;;;;;;;13.65;4.18;;;34.10;48.00;;;;;;5067684;28;20024;-79
2021/07/11 08:27:05;;;;;;;7.15;4.18;;;34.20;48.20;;;;;;5066954;28;20028;-79
2021/07/11 08:29:31;;;;;;;18.42;4.60;;;34.10;48.00;;;;;;5049548;28;20410;-80
2021/07/11 08:31:57;;;;;;;9.45;4.20;;;33.70;48.90;;;;;;5067165;28;20089;-80
2021/07/11 08:34:22;;;;;;;9.52;4.82;;;33.70;49.20;;;;;;5049039;28;20493;-79
2021/07/11 08:36:51;;;;;;;10.73;4.55;;;33.80;49.40;;;;;;5067280;28;20564;-78
2021/07/11 08:39:16;;;;;;;5.65;3.83;;;33.70;49.30;;;;;;5066845;28;20107;-79
2021/07/11 08:41:43;;;;;;;9.50;3.95;;;33.20;50.10;;;;;;5049060;28;20540;-79
2021/07/11 08:44:09;;;;;;;8.02;4.25;;;33.10;51.40;;;;;;5048657;28;20093;-79
2021/07/11 08:46:34;;;;;;;7.00;3.70;;;33.20;51.60;;;;;;5067017;28;20202;-79
2021/07/11 08:49:00;;;;;;;8.25;4.25;;;32.90;51.00;;;;;;5049363;28;20032;-79
2021/07/11 08:51:26;;;;;;;6.50;4.38;;;33.00;51.50;;;;;;5066746;28;20024;-79
2021/07/11 08:53:52;;;;;;;9.85;4.50;;;33.00;51.30;;;;;;5067223;28;20051;-79
2021/07/11 08:56:22;;;;;;;8.48;4.30;;;32.90;51.90;;;;;;5048809;28;20028;-79
2021/07/11 08:58:53;;;;;;;7.88;4.15;;;33.00;51.80;;;;;;5048078;28;20075;-79
2021/07/11 09:01:24;;;;;;;8.63;4.15;;;33.50;51.60;;;;;;5066443;28;20032;-82
2021/07/11 09:04:03;;;;;;;8.02;3.80;;;33.70;50.50;;;;;;5048934;28;20074;-78
2021/07/11 09:06:42;;;;;;;6.40;4.00;;;34.30;49.40;;;;;;5048462;28;20032;-79
2021/07/11 09:09:08;;;;;;;10.23;3.58;;;34.70;47.70;;;;;;5048402;28;20025;-79
2021/07/11 09:11:48;;;;;;;6.05;3.72;;;35.00;46.50;;;;;;5048617;28;20086;-79
2021/07/11 09:14:25;;;;;;;5.50;4.40;;;35.20;45.70;;;;;;5066508;28;20393;-79
2021/07/11 09:16:53;;;;;;;6.10;4.20;;;35.10;45.90;;;;;;5048429;28;20070;-79
2021/07/11 09:19:24;;;;;;;10.25;4.13;;;34.40;47.00;;;;;;5048993;28;20035;-79
2021/07/11 09:21:56;;;;;;;4.90;3.83;;;34.30;47.90;;;;;;5048262;28;20029;-79
2021/07/11 09:24:22;;;;;;;7.32;4.20;;;34.40;48.00;;;;;;5048080;28;20028;-79
2021/07/11 09:26:50;;;;;;;11.43;4.38;;;35.10;47.10;;;;;;5066440;28;20032;-79
2021/07/11 09:29:37;;;;;;;9.70;4.55;;;35.40;46.60;;;;;;5048058;28;20020;-79
2021/07/11 09:32:03;;;;;;;9.00;4.25;;;35.50;46.60;;;;;;5048427;28;20032;-78
2021/07/11 09:34:30;;;;;;;9.63;4.50;;;35.80;45.50;;;;;;5066362;28;20017;-79
2021/07/11 09:37:10;;;;;;;12.52;4.32;;;35.90;44.40;;;;;;5047769;28;20452;-80
2021/07/11 09:39:44;;;;;;;8.98;4.32;;;35.90;44.70;;;;;;5066358;28;20028;-79
2021/07/11 09:42:21;;;;;;;8.67;3.73;;;34.90;45.80;;;;;;5048167;28;20071;-79
2021/07/11 09:44:47;;;;;;;9.85;3.90;;;34.70;46.70;;;;;;5066600;28;20036;-79
2021/07/11 09:47:22;;;;;;;6.07;4.60;;;34.80;47.00;;;;;;5066474;28;20317;-79
2021/07/11 09:50:13;;;;;;;13.77;5.68;;;35.10;46.30;;;;;;5066588;28;20017;-79
2021/07/11 09:52:43;;;;;;;9.85;4.35;;;35.20;45.10;;;;;;5066166;28;20545;-79
2021/07/11 09:55:10;;;;;;;5.55;3.75;;;35.50;44.90;;;;;;5047569;28;20068;-79
2021/07/11 09:57:48;;;;;;;5.18;4.07;;;35.60;44.70;;;;;;5047666;28;20036;-80
2021/07/11 10:00:20;;;;;;;6.75;4.25;;;35.20;45.70;;;;;;5066405;28;20092;-78
2021/07/11 10:02:48;;;;;;;10.90;4.18;;;35.20;46.20;;;;;;5048352;28;20025;-79
2021/07/11 10:05:16;;;;;;;10.65;4.95;;;35.30;45.40;;;;;;5047764;28;20025;-79
2021/07/11 10:07:43;;;;;;;6.93;4.82;;;35.10;45.40;;;;;;5048144;28;20028;-78
2021/07/11 10:10:11;;;;;;;6.78;4.47;;;34.60;46.70;;;;;;5066257;28;20035;-78
2021/07/11 10:12:38;;;;;;;13.00;4.90;;;34.30;47.50;;;;;;5047621;28;20024;-78
2021/07/11 10:15:11;;;;;;;7.97;4.68;;;33.90;48.70;;;;;;5047915;28;20037;-79
2021/07/11 10:17:46;;;;;;;7.22;5.60;;;33.80;48.50;;;;;;5065575;28;20076;-78
2021/07/11 10:20:12;;;;;;;;;;;33.50;49.20;;;;;;5066639;28;20029;-79
2021/07/11 10:22:52;;;;;;;7.25;5.05;;;33.00;50.70;;;;;;5048002;28;19924;-79
2021/07/11 10:25:20;;;;;;;11.05;4.80;;;32.80;51.50;;;;;;5047612;28;20027;-78
2021/07/11 10:27:48;;;;;;;10.52;5.10;;;32.50;52.10;;;;;;5047177;28;20035;-79
2021/07/11 10:30:14;;;;;;;8.55;5.00;;;32.50;52.30;;;;;;5048025;28;20500;-78
2021/07/11 10:32:40;;;;;;;11.93;4.63;;;32.60;52.80;;;;;;5047821;28;20111;-78
2021/07/11 10:35:18;;;;;;;11.15;5.90;;;32.70;52.20;;;;;;5047557;28;20051;-78
2021/07/11 10:37:45;;;;;;;16.77;6.75;;;33.10;52.10;;;;;;5065247;28;20045;-79
2021/07/11 10:40:18;;;;;;;12.18;6.05;;;33.30;51.10;;;;;;5065973;28;20070;-79
2021/07/11 10:42:44;;;;;;;10.48;5.25;;;33.20;50.70;;;;;;5065148;28;20556;-79
2021/07/11 10:45:13;;;;;;;13.40;5.60;;;33.20;50.30;;;;;;5065778;28;20036;-78
2021/07/11 10:47:40;;;;;;;14.07;5.40;;;33.20;51.00;;;;;;5065806;28;20115;-78
2021/07/11 10:50:29;;;;;;;8.90;5.00;;;33.10;52.30;;;;;;5047783;28;20347;-80
2021/07/11 10:53:00;;;;;;;6.70;4.38;;;33.20;52.20;;;;;;5047883;28;20033;-78
2021/07/11 10:55:36;;;;;;;8.50;4.65;;;33.10;51.70;;;;;;5047249;28;20039;-80
2021/07/11 10:58:18;;;;;;;7.68;5.18;;;33.20;50.60;;;;;;5046816;28;20516;-79
2021/07/11 11:00:46;;;;;;;8.55;4.63;;;33.00;50.90;;;;;;5047988;28;20041;-79
2021/07/11 11:03:30;;;;;;;15.85;4.78;;;32.80;51.80;;;;;;5047430;28;20036;-78
2021/07/11 11:05:55;;;;;;;7.50;5.25;;;32.90;52.80;;;;;;5049221;28;20017;-80
2021/07/11 11:08:25;;;;;;;7.15;4.80;;;32.80;52.60;;;;;;5069267;28;20035;-79
2021/07/11 11:10:53;;;;;;;13.75;6.47;;;33.00;53.40;;;;;;5068922;28;20493;-78
2021/07/11 11:13:21;;;;;;;13.90;6.20;;;32.90;51.80;;;;;;5051096;28;20518;-79
2021/07/11 11:15:50;;;;;;;11.13;5.75;;;32.60;52.90;;;;;;5051348;28;20369;-79
2021/07/11 11:18:26;;;;;;;10.73;5.22;;;32.40;53.90;;;;;;5050914;28;20420;-79
2021/07/11 11:20:56;;;;;;;14.85;5.28;;;32.50;54.00;;;;;;5051138;28;20210;-79
2021/07/11 11:23:23;;;;;;;8.23;4.60;;;32.70;53.20;;;;;;5050848;28;20043;-79
2021/07/11 11:25:49;;;;;;;8.85;5.43;;;32.90;52.30;;;;;;5050486;28;20031;-78
2021/07/11 11:28:30;;;;;;;8.95;5.47;;;33.00;52.60;;;;;;5050665;28;20056;-78
2021/07/11 11:31:09;;;;;;;9.30;4.80;;;32.80;52.70;;;;;;5051002;28;20317;-79
2021/07/11 11:33:58;;;;;;;7.18;4.60;;;32.80;53.50;;;;;;5050162;28;20024;-78
2021/07/11 11:36:29;;;;;;;5.93;4.50;;;32.80;52.70;;;;;;5050191;28;20127;-78
2021/07/11 11:38:57;;;;;;;6.47;5.25;;;33.00;53.10;;;;;;5050627;28;20044;-79
2021/07/11 11:41:23;;;;;;;6.28;4.30;;;33.00;51.60;;;;;;5050243;28;20028;-79
2021/07/11 11:43:50;;;;;;;6.50;5.15;;;32.70;52.30;;;;;;5050707;28;20102;-79
2021/07/11 11:46:27;;;;;;;6.53;4.13;;;32.60;53.50;;;;;;5050416;28;20048;-78
2021/07/11 11:49:14;;;;;;;12.55;4.35;;;32.50;53.30;;;;;;5068445;28;20662;-78
2021/07/11 11:51:48;;;;;;;6.28;3.97;;;32.40;52.80;;;;;;5050487;28;20059;-78
2021/07/11 11:54:22;;;;;;;5.40;3.58;;;32.10;53.70;;;;;;5049883;28;20595;-79
2021/07/11 11:56:48;;;;;;;13.30;4.10;;;32.00;53.80;;;;;;5067380;28;20032;-79
2021/07/11 11:59:14;;;;;;;8.82;4.03;;;31.80;54.20;;;;;;5050416;28;20090;-78
2021/07/11 12:01:40;;;;;;;10.85;4.97;;;31.60;55.30;;;;;;5049885;28;20029;-78
2021/07/11 12:04:16;;;;;;;4.18;3.70;;;31.40;55.60;;;;;;5067998;28;20387;-78
2021/07/11 12:06:47;;;;;;;6.07;3.65;;;31.40;55.30;;;;;;5049929;28;20063;-78
2021/07/11 12:09:15;;;;;;;8.55;5.05;;;31.40;54.90;;;;;;5049848;28;20040;-78
2021/07/11 12:11:41;;;;;;;16.27;13.27;;;31.40;54.10;;;;;;5049646;28;20032;-79
2021/07/11 12:14:15;;;;;;;28.50;19.35;;;31.60;54.30;;;;;;5049591;28;20028;-78
2021/07/11 12:16:41;;;;;;;8.60;5.70;;;31.70;53.90;;;;;;5049359;28;20036;-78
2021/07/11 12:19:08;;;;;;;5.68;4.68;;;31.70;54.00;;;;;;5049682;28;20032;-79
2021/07/11 12:21:38;;;;;;;8.57;4.75;;;31.80;53.80;;;;;;5067312;28;20047;-78
2021/07/11 12:24:12;;;;;;;9.07;5.45;;;31.80;54.10;;;;;;5067371;28;20024;-78
2021/07/11 12:26:42;;;;;;;6.72;4.70;;;31.90;54.10;;;;;;5067244;28;20033;-78
2021/07/11 12:29:09;;;;;;;9.73;4.85;;;31.90;54.20;;;;;;5067496;28;20463;-77
2021/07/11 12:31:36;;;;;;;7.95;3.92;;;31.90;53.80;;;;;;5067266;28;20091;-79
2021/07/11 12:34:03;;;;;;;35.72;4.57;;;31.90;53.20;;;;;;5067363;28;20028;-79
2021/07/11 12:36:31;;;;;;;25.50;4.03;;;32.10;52.70;;;;;;5067119;28;20403;-79
2021/07/11 12:38:58;;;;;;;5.50;3.08;;;31.50;53.70;;;;;;5049085;28;20092;-78
2021/07/11 12:41:27;;;;;;;7.68;2.97;;;31.10;54.70;;;;;;5048962;28;20033;-81
2021/07/11 12:43:55;;;;;;;7.15;3.55;;;30.70;55.80;;;;;;5067096;28;20099;-79
2021/07/11 12:46:25;;;;;;;8.32;3.60;;;30.50;54.90;;;;;;5067261;28;20040;-78
2021/07/11 12:48:53;;;;;;;4.25;3.30;;;30.50;55.10;;;;;;5067223;28;20028;-79